createdAt,value
2024-02-01T00:00:38.338Z,98825.47
2024-02-01T00:03:07.786Z,98829.53
2024-02-01T00:05:34.765Z,98823.75
2024-02-01T00:08:01.992Z,98826.19
2024-02-01T00:10:29.070Z,98817.00
2024-02-01T00:12:55.838Z,98829.88
2024-02-01T00:15:24.266Z,98824.84
2024-02-01T00:17:51.218Z,98822.22
2024-02-01T00:20:19.483Z,98826.59
2024-02-01T00:22:46.782Z,98823.06
2024-02-01T00:25:13.674Z,98820.41
2024-02-01T00:27:40.711Z,98817.09
2024-02-01T00:30:08.343Z,98815.31
2024-02-01T00:32:35.323Z,98810.56
2024-02-01T00:35:02.628Z,98814.06
2024-02-01T00:37:29.393Z,98816.66
2024-02-01T00:39:56.725Z,98818.38
2024-02-01T00:42:24.557Z,98813.97
2024-02-01T00:44:51.688Z,98805.59
2024-02-01T00:47:18.467Z,98806.25
2024-02-01T00:49:47.692Z,98798.59
2024-02-01T00:52:16.049Z,98800.16
2024-02-01T00:54:43.232Z,98793.44
2024-02-01T00:57:10.208Z,98791.75
2024-02-01T00:59:38.313Z,98799.38
2024-02-01T01:02:05.961Z,98795.31
2024-02-01T01:04:32.842Z,98791.16
2024-02-01T01:06:59.724Z,98787.75
2024-02-01T01:09:27.051Z,98785.16
2024-02-01T01:11:53.956Z,98784.28
2024-02-01T01:14:21.131Z,98772.22
2024-02-01T01:16:48.905Z,98776.41
2024-02-01T01:19:16.001Z,98767.81
2024-02-01T01:21:45.396Z,98760.13
2024-02-01T01:24:12.681Z,98766.28
2024-02-01T01:26:39.799Z,98750.03
2024-02-01T01:29:06.924Z,98756.97
2024-02-01T01:31:33.743Z,98756.88
2024-02-01T01:34:03.681Z,98747.66
2024-02-01T01:36:30.652Z,98751.97
2024-02-01T01:38:57.505Z,98734.63
2024-02-01T01:41:24.353Z,98737.06
2024-02-01T01:43:51.537Z,98730.25
2024-02-01T01:46:18.490Z,98732.13
2024-02-01T01:48:45.908Z,98726.19
2024-02-01T01:51:16.167Z,98722.06
2024-02-01T01:53:46.299Z,98717.69
2024-02-01T01:56:14.137Z,98717.69
2024-02-01T01:58:43.273Z,98722.16
2024-02-01T02:01:10.466Z,98714.22
2024-02-01T02:03:41.540Z,98717.78
2024-02-01T02:06:09.233Z,98718.59
2024-02-01T02:08:36.212Z,98713.66
2024-02-01T02:11:03.034Z,98706.06
2024-02-01T02:13:29.816Z,98706.00
2024-02-01T02:16:23.901Z,98711.16
2024-02-01T02:18:51.152Z,98706.03
2024-02-01T02:21:22.987Z,98703.53
2024-02-01T02:23:51.168Z,98704.50
2024-02-01T02:26:18.161Z,98700.22
2024-02-01T02:28:45.063Z,98694.31
2024-02-01T02:31:12.172Z,98701.31
2024-02-01T02:33:39.224Z,98697.75
2024-02-01T02:36:10.979Z,98685.03
2024-02-01T02:38:43.201Z,98674.97
2024-02-01T02:41:09.998Z,98687.53
2024-02-01T02:43:37.364Z,98673.84
2024-02-01T02:46:04.344Z,98673.16
2024-02-01T02:48:33.695Z,98678.34
2024-02-01T02:51:00.942Z,98675.72
2024-02-01T02:53:27.948Z,98674.19
2024-02-01T02:55:55.887Z,98664.78
2024-02-01T02:58:24.360Z,98654.31
2024-02-01T03:00:52.816Z,98657.09
2024-02-01T03:03:21.808Z,98654.69
2024-02-01T03:05:49.266Z,98647.88
2024-02-01T03:08:16.140Z,98656.41
2024-02-01T03:10:44.160Z,98657.25
2024-02-01T03:13:11.048Z,98656.34
2024-02-01T03:15:38.373Z,98648.97
2024-02-01T03:18:06.697Z,98645.63
2024-02-01T03:20:34.037Z,98638.78
2024-02-01T03:23:01.218Z,98637.78
2024-02-01T03:25:32.818Z,98641.91
2024-02-01T03:28:05.951Z,98646.16
2024-02-01T03:30:37.982Z,98647.06
2024-02-01T03:33:06.614Z,98649.53
2024-02-01T03:35:34.405Z,98650.47
2024-02-01T03:38:02.901Z,98644.69
2024-02-01T03:40:29.707Z,98646.25
2024-02-01T03:42:56.584Z,98639.53
2024-02-01T03:45:23.409Z,98630.81
2024-02-01T03:47:50.527Z,98626.69
2024-02-01T03:50:17.535Z,98620.69
2024-02-01T03:52:49.108Z,98623.09
2024-02-01T03:55:18.886Z,98615.56
2024-02-01T03:57:47.367Z,98613.97
2024-02-01T04:00:29.339Z,98617.38
2024-02-01T04:02:58.374Z,98606.34
2024-02-01T04:05:27.219Z,98610.56
2024-02-01T04:07:55.165Z,98620.75
2024-02-01T04:10:22.233Z,98617.44
2024-02-01T04:12:51.001Z,98605.50
2024-02-01T04:15:19.024Z,98603.75
2024-02-01T04:17:46.280Z,98598.81
2024-02-01T04:20:14.751Z,98597.88
2024-02-01T04:22:44.556Z,98591.00
2024-02-01T04:25:11.586Z,98587.59
2024-02-01T04:27:38.559Z,98600.94
2024-02-01T04:30:07.943Z,98607.09
2024-02-01T04:32:35.820Z,98598.66
2024-02-01T04:35:06.007Z,98590.25
2024-02-01T04:37:36.079Z,98591.09
2024-02-01T04:40:04.954Z,98584.28
2024-02-01T04:42:32.096Z,98587.72
2024-02-01T04:45:14.330Z,98579.97
2024-02-01T04:47:41.240Z,98579.91
2024-02-01T04:50:09.568Z,98581.72
2024-02-01T04:52:36.941Z,98573.41
2024-02-01T04:55:06.993Z,98576.78
2024-02-01T04:57:34.318Z,98572.53
2024-02-01T05:00:02.057Z,98584.56
2024-02-01T05:02:28.926Z,98576.84
2024-02-01T05:04:56.813Z,98581.22
2024-02-01T05:07:23.772Z,98577.72
2024-02-01T05:09:50.600Z,98579.34
2024-02-01T05:12:21.118Z,98578.47
2024-02-01T05:14:48.139Z,98580.88
2024-02-01T05:17:15.497Z,98572.41
2024-02-01T05:19:42.844Z,98583.56
2024-02-01T05:22:11.967Z,98569.84
2024-02-01T05:24:38.843Z,98570.69
2024-02-01T05:27:09.922Z,98574.09
2024-02-01T05:29:37.513Z,98579.09
2024-02-01T05:32:07.475Z,98581.78
2024-02-01T05:34:35.894Z,98582.44
2024-02-01T05:37:02.885Z,98570.47
2024-02-01T05:39:30.186Z,98571.34
2024-02-01T05:42:01.716Z,98571.75
2024-02-01T05:44:30.289Z,98568.13
2024-02-01T05:46:58.487Z,98573.38
2024-02-01T05:49:30.011Z,98558.97
2024-02-01T05:52:01.776Z,98572.75
2024-02-01T05:54:29.857Z,98576.44
2024-02-01T05:56:56.868Z,98561.97
2024-02-01T05:59:25.127Z,98566.97
2024-02-01T06:01:51.983Z,98567.69
2024-02-01T06:04:19.261Z,98564.44
2024-02-01T06:06:48.111Z,98562.81
2024-02-01T06:09:17.629Z,98566.84
2024-02-01T06:11:52.458Z,98570.25
2024-02-01T06:14:19.525Z,98575.41
2024-02-01T06:16:46.616Z,98569.53
2024-02-01T06:19:14.172Z,98557.53
2024-02-01T06:21:42.906Z,98551.50
2024-02-01T06:24:13.130Z,98571.88
2024-02-01T06:26:40.355Z,98573.66
2024-02-01T06:29:32.060Z,98576.97
2024-02-01T06:31:59.070Z,98562.38
2024-02-01T06:34:39.971Z,98565.66
2024-02-01T06:37:10.310Z,98581.75
2024-02-01T06:39:59.624Z,98586.13
2024-02-01T06:42:33.363Z,98588.63
2024-02-01T06:45:25.587Z,98589.38
2024-02-01T06:48:02.268Z,98587.66
2024-02-01T06:51:04.571Z,98576.97
2024-02-01T06:53:36.073Z,98576.59
2024-02-01T06:56:23.544Z,98591.94
2024-02-01T06:58:57.436Z,98573.94
2024-02-01T07:01:39.974Z,98582.44
2024-02-01T07:04:21.983Z,98582.31
2024-02-01T07:07:18.965Z,98571.94
2024-02-01T07:10:00.196Z,98580.31
2024-02-01T07:12:41.348Z,98568.22
2024-02-01T07:15:26.729Z,98556.00
2024-02-01T07:18:01.000Z,98556.44
2024-02-01T07:20:49.130Z,98543.97
2024-02-01T07:23:23.145Z,98538.97
2024-02-01T07:26:03.433Z,98544.91
2024-02-01T07:28:49.715Z,98549.78
2024-02-01T07:31:36.571Z,98550.94
2024-02-01T07:34:22.826Z,98547.59
2024-02-01T07:37:08.282Z,98552.91
2024-02-01T07:39:53.321Z,98554.66
2024-02-01T07:42:38.923Z,98535.47
2024-02-01T07:45:24.773Z,98535.28
2024-02-01T07:48:10.154Z,98533.94
2024-02-01T07:50:56.480Z,98537.09
2024-02-01T07:53:41.789Z,98549.63
2024-02-01T07:56:27.671Z,98545.63
2024-02-01T07:58:55.922Z,98545.47
2024-02-01T08:01:25.795Z,98544.56
2024-02-01T08:04:14.241Z,98535.63
2024-02-01T08:07:00.071Z,98533.75
2024-02-01T08:09:28.543Z,98533.16
2024-02-01T08:11:55.449Z,98527.03
2024-02-01T08:14:24.128Z,98531.47
2024-02-01T08:16:51.572Z,98527.84
2024-02-01T08:19:34.012Z,98521.19
2024-02-01T08:22:10.432Z,98512.59
2024-02-01T08:24:37.475Z,98510.66
2024-02-01T08:27:06.156Z,98514.72
2024-02-01T08:29:38.039Z,98501.59
2024-02-01T08:32:05.778Z,98514.78
2024-02-01T08:34:40.817Z,98512.22
2024-02-01T08:37:13.009Z,98511.41
2024-02-01T08:39:47.413Z,98515.59
2024-02-01T08:42:14.796Z,98521.09
2024-02-01T08:44:44.693Z,98514.38
2024-02-01T08:47:15.048Z,98510.16
2024-02-01T08:49:44.038Z,98507.56
2024-02-01T08:52:15.746Z,98518.41
2024-02-01T08:54:47.499Z,98513.81
2024-02-01T08:57:18.504Z,98509.84
2024-02-01T08:59:47.243Z,98511.16
2024-02-01T09:02:17.757Z,98505.94
2024-02-01T09:04:44.877Z,98506.81
2024-02-01T09:07:11.948Z,98510.63
2024-02-01T09:09:40.327Z,98502.97
2024-02-01T09:12:07.543Z,98505.81
2024-02-01T09:14:37.495Z,98507.25
2024-02-01T09:17:14.046Z,98508.28
2024-02-01T09:19:42.855Z,98508.56
2024-02-01T09:22:09.740Z,98508.22
2024-02-01T09:24:36.571Z,98503.22
2024-02-01T09:27:07.073Z,98492.66
2024-02-01T09:29:36.608Z,98497.56
2024-02-01T09:32:03.692Z,98500.00
2024-02-01T09:34:31.498Z,98500.09
2024-02-01T09:36:58.410Z,98499.75
2024-02-01T09:39:25.338Z,98493.28
2024-02-01T09:42:01.846Z,98496.81
2024-02-01T09:47:20.485Z,98503.16
2024-02-01T09:49:50.114Z,98502.91
2024-02-01T09:52:17.446Z,98510.75
2024-02-01T09:54:47.801Z,98505.56
2024-02-01T09:57:18.043Z,98504.44
2024-02-01T09:59:45.353Z,98499.06
2024-02-01T10:02:13.486Z,98502.41
2024-02-01T10:04:41.857Z,98501.59
2024-02-01T10:07:11.714Z,98496.34
2024-02-01T10:09:40.304Z,98497.16
2024-02-01T10:12:07.829Z,98498.78
2024-02-01T10:14:39.795Z,98477.72
2024-02-01T10:17:07.029Z,98479.78
2024-02-01T10:19:36.363Z,98464.03
2024-02-01T10:22:12.357Z,98460.41
2024-02-01T10:24:46.815Z,98462.03
2024-02-01T10:27:18.667Z,98461.81
2024-02-01T10:29:45.772Z,98460.59
2024-02-01T10:32:15.444Z,98444.44
2024-02-01T10:34:54.604Z,98452.09
2024-02-01T10:37:25.385Z,98443.91
2024-02-01T10:40:07.984Z,98446.72
2024-02-01T10:42:36.659Z,98437.47
2024-02-01T10:45:10.984Z,98437.41
2024-02-01T10:47:44.648Z,98443.38
2024-02-01T10:50:12.017Z,98442.03
2024-02-01T10:52:39.617Z,98437.16
2024-02-01T10:55:11.156Z,98428.09
2024-02-01T10:57:43.100Z,98433.34
2024-02-01T11:00:21.958Z,98432.56
2024-02-01T11:02:52.974Z,98433.03
2024-02-01T11:05:19.929Z,98427.22
2024-02-01T11:07:50.009Z,98430.22
2024-02-01T11:10:16.965Z,98425.19
2024-02-01T11:12:55.631Z,98421.03
2024-02-01T11:15:26.643Z,98422.81
2024-02-01T11:18:01.048Z,98430.25
2024-02-01T11:20:32.512Z,98430.16
2024-02-01T11:22:59.586Z,98440.16
2024-02-01T11:25:29.957Z,98432.66
2024-02-01T11:27:58.792Z,98439.47
2024-02-01T11:30:29.673Z,98434.91
2024-02-01T11:32:57.238Z,98431.25
2024-02-01T11:35:24.589Z,98429.31
2024-02-01T11:38:07.920Z,98425.78
2024-02-01T11:40:34.688Z,98430.06
2024-02-01T11:43:01.889Z,98428.56
2024-02-01T11:45:29.810Z,98417.00
2024-02-01T11:47:58.548Z,98411.13
2024-02-01T11:50:25.695Z,98396.94
2024-02-01T11:53:00.112Z,98404.22
2024-02-01T11:55:30.877Z,98394.22
2024-02-01T11:58:00.492Z,98381.75
2024-02-01T12:00:39.444Z,98368.72
2024-02-01T12:03:16.069Z,98377.28
2024-02-01T12:05:45.764Z,98371.31
2024-02-01T12:08:12.673Z,98368.34
2024-02-01T12:10:40.312Z,98384.00
2024-02-01T12:13:07.201Z,98374.38
2024-02-01T12:15:37.922Z,98377.47
2024-02-01T12:18:10.133Z,98376.59
2024-02-01T12:20:37.960Z,98389.56
2024-02-01T12:23:05.366Z,98375.47
2024-02-01T12:25:34.442Z,98377.81
2024-02-01T12:28:01.714Z,98373.69
2024-02-01T12:30:30.297Z,98369.78
2024-02-01T12:32:57.409Z,98378.00
2024-02-01T12:35:33.006Z,98363.00
2024-02-01T12:38:03.077Z,98363.44
2024-02-01T12:40:30.572Z,98368.75
2024-02-01T12:43:02.674Z,98370.84
2024-02-01T12:45:29.488Z,98366.34
2024-02-01T12:47:56.429Z,98356.19
2024-02-01T12:50:24.039Z,98343.22
2024-02-01T12:52:51.896Z,98351.06
2024-02-01T12:55:19.099Z,98351.78
2024-02-01T12:57:47.854Z,98345.22
2024-02-01T13:00:15.401Z,98339.38
2024-02-01T13:02:43.281Z,98333.19
2024-02-01T13:05:13.560Z,98339.81
2024-02-01T13:07:40.691Z,98335.50
2024-02-01T13:10:16.553Z,98331.03
2024-02-01T13:12:56.376Z,98334.00
2024-02-01T13:15:25.099Z,98333.34
2024-02-01T13:17:55.384Z,98333.72
2024-02-01T13:20:23.044Z,98333.31
2024-02-01T13:22:51.223Z,98332.75
2024-02-01T13:25:21.921Z,98334.72
2024-02-01T13:27:51.109Z,98339.69
2024-02-01T13:30:19.589Z,98336.34
2024-02-01T13:32:47.347Z,98340.81
2024-02-01T13:35:14.837Z,98335.22
2024-02-01T13:37:41.945Z,98338.13
2024-02-01T13:40:16.128Z,98348.88
2024-02-01T13:42:43.737Z,98335.72
2024-02-01T13:45:10.962Z,98337.72
2024-02-01T13:47:38.135Z,98340.22
2024-02-01T13:50:06.942Z,98343.94
2024-02-01T13:52:35.082Z,98345.72
2024-02-01T13:55:01.886Z,98334.72
2024-02-01T13:57:29.005Z,98341.81
2024-02-01T13:59:56.182Z,98339.94
2024-02-01T14:02:23.483Z,98342.84
2024-02-01T14:04:50.377Z,98345.00
2024-02-01T14:07:17.243Z,98355.41
2024-02-01T14:09:44.147Z,98350.78
2024-02-01T14:12:11.145Z,98359.56
2024-02-01T14:14:38.188Z,98366.91
2024-02-01T14:17:05.098Z,98366.28
2024-02-01T14:19:32.313Z,98370.19
2024-02-01T14:21:59.251Z,98360.13
2024-02-01T14:24:26.384Z,98364.38
2024-02-01T14:26:53.373Z,98369.44
2024-02-01T14:29:20.337Z,98378.97
2024-02-01T14:31:47.221Z,98376.91
2024-02-01T14:34:15.118Z,98380.47
2024-02-01T14:36:43.115Z,98381.56
2024-02-01T14:39:22.884Z,98368.72
2024-02-01T14:41:51.464Z,98374.09
2024-02-01T14:44:19.191Z,98366.53
2024-02-01T14:46:46.641Z,98366.53
2024-02-01T14:49:14.423Z,98369.44
2024-02-01T14:51:41.557Z,98370.66
2024-02-01T14:54:08.458Z,98369.16
2024-02-01T14:56:36.025Z,98369.97
2024-02-01T14:59:03.856Z,98372.03
2024-02-01T15:01:31.783Z,98373.53
2024-02-01T15:03:58.949Z,98365.16
2024-02-01T15:06:26.416Z,98368.03
2024-02-01T15:08:59.863Z,98367.34
2024-02-01T15:11:28.565Z,98366.13
2024-02-01T15:13:56.414Z,98369.75
2024-02-01T15:16:24.098Z,98368.91
2024-02-01T15:18:51.843Z,98375.50
2024-02-01T15:21:19.102Z,98371.22
2024-02-01T15:23:46.943Z,98368.13
2024-02-01T15:26:14.543Z,98381.25
2024-02-01T15:28:42.008Z,98389.06
2024-02-01T15:31:12.410Z,98391.84
2024-02-01T15:33:40.311Z,98384.56
2024-02-01T15:36:08.074Z,98398.16
2024-02-01T15:38:36.421Z,98397.25
2024-02-01T15:41:07.836Z,98394.66
2024-02-01T15:43:34.678Z,98391.41
2024-02-01T15:46:01.477Z,98391.00
2024-02-01T15:48:28.445Z,98390.69
2024-02-01T15:50:55.547Z,98397.25
2024-02-01T15:53:22.621Z,98392.38
2024-02-01T15:55:49.467Z,98397.09
2024-02-01T15:58:16.430Z,98406.88
2024-02-01T16:00:44.776Z,98400.72
2024-02-01T16:03:14.312Z,98404.28
2024-02-01T16:05:59.043Z,98406.88
2024-02-01T16:08:26.940Z,98402.69
2024-02-01T16:11:01.725Z,98415.69
2024-02-01T16:13:47.898Z,98410.72
2024-02-01T16:16:31.017Z,98413.22
2024-02-01T16:18:59.510Z,98423.16
2024-02-01T16:21:29.321Z,98422.06
2024-02-01T16:23:56.999Z,98424.53
2024-02-01T16:26:51.413Z,98430.16
2024-02-01T16:29:18.240Z,98436.38
2024-02-01T16:31:47.621Z,98440.84
2024-02-01T16:34:15.263Z,98434.84
2024-02-01T16:36:59.986Z,98441.09
2024-02-01T16:39:46.855Z,98438.28
2024-02-01T16:42:22.847Z,98435.88
2024-02-01T16:44:56.305Z,98448.31
2024-02-01T16:47:53.417Z,98450.56
2024-02-01T16:50:32.772Z,98449.47
2024-02-01T16:53:04.077Z,98449.09
2024-02-01T16:55:54.615Z,98460.19
2024-02-01T16:58:27.654Z,98465.53
2024-02-01T17:00:57.332Z,98459.69
2024-02-01T17:03:28.643Z,98473.53
2024-02-01T17:05:57.850Z,98475.88
2024-02-01T17:08:45.312Z,98472.41
2024-02-01T17:11:16.498Z,98462.78
2024-02-01T17:13:43.450Z,98466.72
2024-02-01T17:16:41.683Z,98474.19
2024-02-01T17:19:12.473Z,98473.94
2024-02-01T17:21:45.125Z,98479.63
2024-02-01T17:24:19.987Z,98483.53
2024-02-01T17:26:48.513Z,98486.59
2024-02-01T17:29:19.177Z,98472.31
2024-02-01T17:31:47.334Z,98483.84
2024-02-01T17:34:25.299Z,98487.66
2024-02-01T17:36:55.200Z,98489.81
2024-02-01T17:39:48.160Z,98488.53
2024-02-01T17:42:32.720Z,98485.47
2024-02-01T17:45:27.768Z,98485.59
2024-02-01T17:48:10.430Z,98483.53
2024-02-01T17:50:39.902Z,98490.94
2024-02-01T17:53:11.714Z,98497.19
2024-02-01T17:55:48.778Z,98511.56
2024-02-01T17:58:40.687Z,98515.56
2024-02-01T18:01:16.943Z,98504.81
2024-02-01T18:03:45.916Z,98511.56
2024-02-01T18:06:22.274Z,98517.03
2024-02-01T18:08:49.895Z,98519.94
2024-02-01T18:11:18.227Z,98517.13
2024-02-01T18:13:46.498Z,98524.81
2024-02-01T18:16:15.894Z,98527.16
2024-02-01T18:18:45.582Z,98525.94
2024-02-01T18:21:20.343Z,98526.63
2024-02-01T18:23:48.651Z,98530.06
2024-02-01T18:26:18.282Z,98523.47
2024-02-01T18:28:46.070Z,98522.06
2024-02-01T18:34:21.448Z,98527.03
2024-02-01T18:36:50.390Z,98524.84
2024-02-01T18:39:27.981Z,98524.47
2024-02-01T18:41:58.850Z,98541.22
2024-02-01T18:44:26.967Z,98531.38
2024-02-01T18:47:00.640Z,98530.34
2024-02-01T18:49:33.410Z,98519.75
2024-02-01T18:52:05.436Z,98516.84
2024-02-01T18:54:36.135Z,98520.59
2024-02-01T18:57:06.928Z,98521.75
2024-02-01T18:59:53.511Z,98535.28
2024-02-01T19:02:51.724Z,98538.06
2024-02-01T19:05:44.312Z,98523.53
2024-02-01T19:08:14.500Z,98535.03
2024-02-01T19:10:43.717Z,98534.25
2024-02-01T19:13:57.948Z,98545.53
2024-02-01T19:16:26.854Z,98552.56
2024-02-01T19:19:02.956Z,98559.56
2024-02-01T19:21:33.855Z,98550.63
2024-02-01T19:24:06.806Z,98558.53
2024-02-01T19:26:34.134Z,98553.84
2024-02-01T19:29:07.685Z,98551.69
2024-02-01T19:31:40.207Z,98553.78
2024-02-01T19:34:10.529Z,98564.56
2024-02-01T19:36:38.317Z,98567.22
2024-02-01T19:39:10.747Z,98568.06
2024-02-01T19:41:43.717Z,98560.59
2024-02-01T19:44:12.910Z,98574.16
2024-02-01T19:46:40.693Z,98565.66
2024-02-01T19:49:09.273Z,98564.91
2024-02-01T19:54:30.200Z,98558.34
2024-02-01T19:57:00.790Z,98559.47
2024-02-01T19:59:28.777Z,98563.78
2024-02-01T20:01:55.683Z,98570.72
2024-02-01T20:04:22.588Z,98568.59
2024-02-01T20:06:50.974Z,98578.25
2024-02-01T20:09:18.112Z,98576.66
2024-02-01T20:11:45.481Z,98572.78
2024-02-01T20:14:12.803Z,98589.72
2024-02-01T20:16:42.085Z,98594.34
2024-02-01T20:19:09.801Z,98590.19
2024-02-01T20:21:38.150Z,98596.22
2024-02-01T20:24:09.222Z,98608.16
2024-02-01T20:26:36.265Z,98609.28
2024-02-01T20:29:04.513Z,98595.56
2024-02-01T20:31:34.221Z,98610.09
2024-02-01T20:34:10.232Z,98605.75
2024-02-01T20:36:54.322Z,98602.34
2024-02-01T20:39:41.356Z,98616.06
2024-02-01T20:42:24.155Z,98625.53
2024-02-01T20:44:56.512Z,98624.16
2024-02-01T20:47:35.135Z,98634.41
2024-02-01T20:50:07.566Z,98633.44
2024-02-01T20:52:35.807Z,98635.56
2024-02-01T20:55:19.373Z,98644.13
2024-02-01T20:57:54.834Z,98644.22
2024-02-01T21:00:26.875Z,98644.50
2024-02-01T21:02:54.867Z,98655.66
2024-02-01T21:05:47.634Z,98657.22
2024-02-01T21:08:29.369Z,98652.25
2024-02-01T21:10:57.074Z,98655.09
2024-02-01T21:13:27.826Z,98650.63
2024-02-01T21:15:55.747Z,98643.72
2024-02-01T21:18:24.875Z,98651.75
2024-02-01T21:20:53.226Z,98649.44
2024-02-01T21:23:46.097Z,98653.75
2024-02-01T21:26:27.094Z,98655.78
2024-02-01T21:28:55.643Z,98662.88
2024-02-01T21:31:23.885Z,98658.25
2024-02-01T21:33:55.421Z,98646.31
2024-02-01T21:36:23.436Z,98648.84
2024-02-01T21:38:51.099Z,98645.16
2024-02-01T21:41:19.675Z,98646.88
2024-02-01T21:43:46.749Z,98649.72
2024-02-01T21:46:21.921Z,98650.47
2024-02-01T21:48:50.018Z,98655.78
2024-02-01T21:51:16.986Z,98653.56
2024-02-01T21:53:44.257Z,98658.94
2024-02-01T21:56:12.778Z,98662.22
2024-02-01T21:58:39.741Z,98661.44
2024-02-01T22:01:06.720Z,98656.47
2024-02-01T22:03:33.784Z,98659.31
2024-02-01T22:06:00.792Z,98665.09
2024-02-01T22:08:27.692Z,98671.75
2024-02-01T22:10:54.535Z,98678.56
2024-02-01T22:13:21.445Z,98674.56
2024-02-01T22:15:48.328Z,98680.75
2024-02-01T22:18:15.366Z,98679.97
2024-02-01T22:20:42.320Z,98693.75
2024-02-01T22:23:09.184Z,98695.28
2024-02-01T22:25:36.050Z,98685.75
2024-02-01T22:28:02.950Z,98692.53
2024-02-01T22:30:29.863Z,98690.91
2024-02-01T22:35:24.761Z,98675.38
2024-02-01T22:37:51.704Z,98680.53
2024-02-01T22:40:18.622Z,98681.38
2024-02-01T22:42:45.514Z,98675.53
2024-02-01T22:45:12.983Z,98676.38
2024-02-01T22:47:40.086Z,98673.75
2024-02-01T22:50:07.637Z,98662.91
2024-02-01T22:52:35.302Z,98666.28
2024-02-01T22:55:02.289Z,98664.53
2024-02-01T22:57:30.263Z,98670.38
2024-02-01T22:59:57.163Z,98669.50
2024-02-01T23:02:24.055Z,98672.13
2024-02-01T23:04:50.934Z,98685.59
2024-02-01T23:07:17.876Z,98684.75
2024-02-01T23:09:44.785Z,98683.25
2024-02-01T23:12:11.807Z,98695.34
2024-02-01T23:14:38.701Z,98684.19
2024-02-01T23:17:05.814Z,98693.66
2024-02-01T23:19:32.698Z,98700.44
2024-02-01T23:21:59.970Z,98703.03
2024-02-01T23:24:27.257Z,98714.00
2024-02-01T23:26:54.366Z,98705.34
2024-02-01T23:29:21.337Z,98708.81
2024-02-01T23:31:48.221Z,98717.38
2024-02-01T23:34:15.532Z,98711.13
2024-02-01T23:36:42.464Z,98703.47
2024-02-01T23:39:09.509Z,98709.13
2024-02-01T23:41:36.372Z,98709.06
2024-02-01T23:44:04.073Z,98709.69
2024-02-01T23:46:30.936Z,98716.03
2024-02-01T23:48:58.027Z,98710.66
2024-02-01T23:51:25.038Z,98718.41
2024-02-01T23:53:51.952Z,98711.28
2024-02-01T23:56:19.204Z,98713.16
2024-02-01T23:58:46.053Z,98718.28
